sensor_id;sensor_type;location;lat;lon;timestamp;temperature;humidity
73955;DHT22;62306;52.516;13.290;2023-02-22T00:00:25;9.30;90.00
73955;DHT22;62306;52.516;13.290;2023-02-22T00:03:02;9.30;90.10
73955;DHT22;62306;52.516;13.290;2023-02-22T00:05:29;9.30;90.00
73955;DHT22;62306;52.516;13.290;2023-02-22T00:07:57;9.30;90.00
73955;DHT22;62306;52.516;13.290;2023-02-22T00:10:25;9.30;90.20
73955;DHT22;62306;52.516;13.290;2023-02-22T00:12:54;9.30;90.20
73955;DHT22;62306;52.516;13.290;2023-02-22T00:15:23;9.20;90.00
73955;DHT22;62306;52.516;13.290;2023-02-22T00:17:52;9.20;90.00
73955;DHT22;62306;52.516;13.290;2023-02-22T00:20:21;9.20;90.40
73955;DHT22;62306;52.516;13.290;2023-02-22T00:22:49;9.20;90.70
73955;DHT22;62306;52.516;13.290;2023-02-22T00:25:19;9.10;90.70
73955;DHT22;62306;52.516;13.290;2023-02-22T00:27:47;9.10;90.80
73955;DHT22;62306;52.516;13.290;2023-02-22T00:30:18;9.20;90.50
73955;DHT22;62306;52.516;13.290;2023-02-22T00:32:46;9.20;90.40
73955;DHT22;62306;52.516;13.290;2023-02-22T00:35:14;9.10;90.80
73955;DHT22;62306;52.516;13.290;2023-02-22T00:37:42;9.10;90.60
73955;DHT22;62306;52.516;13.290;2023-02-22T00:40:10;9.10;90.50
73955;DHT22;62306;52.516;13.290;2023-02-22T00:42:37;9.10;89.80
73955;DHT22;62306;52.516;13.290;2023-02-22T00:45:05;9.10;90.00
73955;DHT22;62306;52.516;13.290;2023-02-22T00:47:32;9.00;90.80
73955;DHT22;62306;52.516;13.290;2023-02-22T00:49:59;8.90;91.50
73955;DHT22;62306;52.516;13.290;2023-02-22T00:52:27;8.90;91.80
73955;DHT22;62306;52.516;13.290;2023-02-22T00:54:56;8.90;92.20
73955;DHT22;62306;52.516;13.290;2023-02-22T00:57:24;8.80;92.50
73955;DHT22;62306;52.516;13.290;2023-02-22T00:59:51;8.80;92.80
73955;DHT22;62306;52.516;13.290;2023-02-22T01:02:18;8.80;93.00
73955;DHT22;62306;52.516;13.290;2023-02-22T01:04:45;8.70;93.30
73955;DHT22;62306;52.516;13.290;2023-02-22T01:07:12;8.80;92.90
73955;DHT22;62306;52.516;13.290;2023-02-22T01:09:39;8.80;92.80
73955;DHT22;62306;52.516;13.290;2023-02-22T01:12:08;8.70;93.20
73955;DHT22;62306;52.516;13.290;2023-02-22T01:14:35;8.80;93.30
73955;DHT22;62306;52.516;13.290;2023-02-22T01:17:01;8.80;93.40
73955;DHT22;62306;52.516;13.290;2023-02-22T01:19:29;8.80;93.40
73955;DHT22;62306;52.516;13.290;2023-02-22T01:21:56;8.80;93.40
73955;DHT22;62306;52.516;13.290;2023-02-22T01:24:23;8.80;93.50
73955;DHT22;62306;52.516;13.290;2023-02-22T01:26:51;8.80;93.50
73955;DHT22;62306;52.516;13.290;2023-02-22T01:29:20;8.80;93.50
73955;DHT22;62306;52.516;13.290;2023-02-22T01:31:52;8.70;93.70
73955;DHT22;62306;52.516;13.290;2023-02-22T01:34:20;8.70;93.60
73955;DHT22;62306;52.516;13.290;2023-02-22T01:36:47;8.60;93.80
73955;DHT22;62306;52.516;13.290;2023-02-22T01:39:14;8.60;93.90
73955;DHT22;62306;52.516;13.290;2023-02-22T01:41:42;8.60;94.00
73955;DHT22;62306;52.516;13.290;2023-02-22T01:44:25;8.60;94.30
73955;DHT22;62306;52.516;13.290;2023-02-22T01:46:53;8.50;94.40
73955;DHT22;62306;52.516;13.290;2023-02-22T01:49:20;8.50;94.50
73955;DHT22;62306;52.516;13.290;2023-02-22T01:51:50;8.40;94.50
73955;DHT22;62306;52.516;13.290;2023-02-22T01:54:20;8.40;94.90
73955;DHT22;62306;52.516;13.290;2023-02-22T01:56:53;8.40;95.00
73955;DHT22;62306;52.516;13.290;2023-02-22T01:59:24;8.40;95.10
73955;DHT22;62306;52.516;13.290;2023-02-22T02:01:51;8.30;95.10
73955;DHT22;62306;52.516;13.290;2023-02-22T02:04:20;8.40;95.20
73955;DHT22;62306;52.516;13.290;2023-02-22T02:06:51;8.40;95.20
73955;DHT22;62306;52.516;13.290;2023-02-22T02:09:22;8.40;95.10
73955;DHT22;62306;52.516;13.290;2023-02-22T02:11:52;8.50;95.00
73955;DHT22;62306;52.516;13.290;2023-02-22T02:14:19;8.60;94.90
73955;DHT22;62306;52.516;13.290;2023-02-22T02:16:49;8.60;94.90
73955;DHT22;62306;52.516;13.290;2023-02-22T02:19:24;8.60;94.60
73955;DHT22;62306;52.516;13.290;2023-02-22T02:22:22;8.70;94.50
73955;DHT22;62306;52.516;13.290;2023-02-22T02:28:11;8.70;94.40
73955;DHT22;62306;52.516;13.290;2023-02-22T02:30:55;8.70;94.60
73955;DHT22;62306;52.516;13.290;2023-02-22T02:33:31;8.60;94.60
73955;DHT22;62306;52.516;13.290;2023-02-22T02:36:02;8.50;94.80
73955;DHT22;62306;52.516;13.290;2023-02-22T02:38:34;8.40;95.00
73955;DHT22;62306;52.516;13.290;2023-02-22T02:41:08;8.40;95.30
73955;DHT22;62306;52.516;13.290;2023-02-22T02:43:41;8.30;95.40
73955;DHT22;62306;52.516;13.290;2023-02-22T02:46:14;8.20;95.60
73955;DHT22;62306;52.516;13.290;2023-02-22T02:48:46;8.10;95.90
73955;DHT22;62306;52.516;13.290;2023-02-22T02:51:14;8.10;96.10
73955;DHT22;62306;52.516;13.290;2023-02-22T02:53:45;8.00;96.10
73955;DHT22;62306;52.516;13.290;2023-02-22T02:56:15;8.00;96.40
73955;DHT22;62306;52.516;13.290;2023-02-22T02:58:45;7.90;96.60
73955;DHT22;62306;52.516;13.290;2023-02-22T03:01:19;7.90;96.80
73955;DHT22;62306;52.516;13.290;2023-02-22T03:04:08;7.90;96.90
73955;DHT22;62306;52.516;13.290;2023-02-22T03:09:52;7.80;97.30
73955;DHT22;62306;52.516;13.290;2023-02-22T03:12:34;7.90;97.40
73955;DHT22;62306;52.516;13.290;2023-02-22T03:15:11;8.00;97.30
73955;DHT22;62306;52.516;13.290;2023-02-22T03:17:46;8.00;97.30
73955;DHT22;62306;52.516;13.290;2023-02-22T03:20:19;8.10;97.10
73955;DHT22;62306;52.516;13.290;2023-02-22T03:22:51;8.10;97.20
73955;DHT22;62306;52.516;13.290;2023-02-22T03:25:26;8.10;97.10
73955;DHT22;62306;52.516;13.290;2023-02-22T03:27:58;8.10;97.10
73955;DHT22;62306;52.516;13.290;2023-02-22T03:30:32;8.10;97.20
73955;DHT22;62306;52.516;13.290;2023-02-22T03:33:05;8.20;97.20
73955;DHT22;62306;52.516;13.290;2023-02-22T03:35:36;8.20;97.20
73955;DHT22;62306;52.516;13.290;2023-02-22T03:38:06;8.20;97.20
73955;DHT22;62306;52.516;13.290;2023-02-22T03:40:38;8.20;97.20
73955;DHT22;62306;52.516;13.290;2023-02-22T03:43:11;8.20;97.30
73955;DHT22;62306;52.516;13.290;2023-02-22T03:45:42;8.20;97.40
73955;DHT22;62306;52.516;13.290;2023-02-22T03:48:15;8.10;97.40
73955;DHT22;62306;52.516;13.290;2023-02-22T03:50:45;8.10;97.50
73955;DHT22;62306;52.516;13.290;2023-02-22T03:53:13;8.10;97.60
73955;DHT22;62306;52.516;13.290;2023-02-22T03:55:41;8.10;97.40
73955;DHT22;62306;52.516;13.290;2023-02-22T03:58:10;8.10;97.50
73955;DHT22;62306;52.516;13.290;2023-02-22T04:00:39;8.10;97.60
73955;DHT22;62306;52.516;13.290;2023-02-22T04:03:09;8.10;97.70
73955;DHT22;62306;52.516;13.290;2023-02-22T04:05:36;8.10;97.80
73955;DHT22;62306;52.516;13.290;2023-02-22T04:08:05;8.00;97.90
73955;DHT22;62306;52.516;13.290;2023-02-22T04:10:32;7.90;98.00
73955;DHT22;62306;52.516;13.290;2023-02-22T04:12:59;7.90;98.10
73955;DHT22;62306;52.516;13.290;2023-02-22T04:15:26;7.90;98.30
73955;DHT22;62306;52.516;13.290;2023-02-22T04:17:53;7.90;98.30
73955;DHT22;62306;52.516;13.290;2023-02-22T04:20:20;7.90;98.50
73955;DHT22;62306;52.516;13.290;2023-02-22T04:22:50;7.90;98.30
73955;DHT22;62306;52.516;13.290;2023-02-22T04:25:19;7.90;98.40
73955;DHT22;62306;52.516;13.290;2023-02-22T04:27:48;7.90;98.50
73955;DHT22;62306;52.516;13.290;2023-02-22T04:30:17;7.90;98.40
73955;DHT22;62306;52.516;13.290;2023-02-22T04:32:44;7.90;98.40
73955;DHT22;62306;52.516;13.290;2023-02-22T04:35:11;7.90;98.40
73955;DHT22;62306;52.516;13.290;2023-02-22T04:37:38;7.90;98.40
73955;DHT22;62306;52.516;13.290;2023-02-22T04:40:06;7.90;98.50
73955;DHT22;62306;52.516;13.290;2023-02-22T04:42:35;8.00;98.30
73955;DHT22;62306;52.516;13.290;2023-02-22T04:45:03;8.00;98.20
73955;DHT22;62306;52.516;13.290;2023-02-22T04:47:33;8.00;98.10
73955;DHT22;62306;52.516;13.290;2023-02-22T04:50:00;7.90;98.20
73955;DHT22;62306;52.516;13.290;2023-02-22T04:52:27;7.80;98.50
73955;DHT22;62306;52.516;13.290;2023-02-22T04:54:54;7.80;98.70
73955;DHT22;62306;52.516;13.290;2023-02-22T04:57:21;7.80;98.90
73955;DHT22;62306;52.516;13.290;2023-02-22T04:59:50;7.80;98.90
73955;DHT22;62306;52.516;13.290;2023-02-22T05:02:17;7.80;98.90
73955;DHT22;62306;52.516;13.290;2023-02-22T05:04:44;7.90;98.80
73955;DHT22;62306;52.516;13.290;2023-02-22T05:07:11;7.90;98.70
73955;DHT22;62306;52.516;13.290;2023-02-22T05:09:38;7.90;98.60
73955;DHT22;62306;52.516;13.290;2023-02-22T05:12:06;8.00;98.50
73955;DHT22;62306;52.516;13.290;2023-02-22T05:14:33;8.10;98.70
73955;DHT22;62306;52.516;13.290;2023-02-22T05:17:01;8.10;98.30
73955;DHT22;62306;52.516;13.290;2023-02-22T05:19:28;8.10;98.20
73955;DHT22;62306;52.516;13.290;2023-02-22T05:21:55;8.20;98.10
73955;DHT22;62306;52.516;13.290;2023-02-22T05:24:22;8.20;98.00
73955;DHT22;62306;52.516;13.290;2023-02-22T05:26:49;8.20;98.00
73955;DHT22;62306;52.516;13.290;2023-02-22T05:29:18;8.10;97.80
73955;DHT22;62306;52.516;13.290;2023-02-22T05:31:44;8.10;97.90
73955;DHT22;62306;52.516;13.290;2023-02-22T05:34:13;8.10;98.00
73955;DHT22;62306;52.516;13.290;2023-02-22T05:36:40;8.10;97.90
73955;DHT22;62306;52.516;13.290;2023-02-22T05:39:07;8.10;97.80
73955;DHT22;62306;52.516;13.290;2023-02-22T05:41:34;8.20;97.70
73955;DHT22;62306;52.516;13.290;2023-02-22T05:44:01;8.20;97.60
73955;DHT22;62306;52.516;13.290;2023-02-22T05:46:28;8.20;97.50
73955;DHT22;62306;52.516;13.290;2023-02-22T05:48:55;8.20;97.30
73955;DHT22;62306;52.516;13.290;2023-02-22T05:51:24;8.20;97.40
73955;DHT22;62306;52.516;13.290;2023-02-22T05:53:50;8.20;97.00
73955;DHT22;62306;52.516;13.290;2023-02-22T05:56:22;8.20;96.60
73955;DHT22;62306;52.516;13.290;2023-02-22T05:58:49;8.20;96.80
73955;DHT22;62306;52.516;13.290;2023-02-22T06:01:17;8.20;96.60
73955;DHT22;62306;52.516;13.290;2023-02-22T06:03:46;8.30;96.40
73955;DHT22;62306;52.516;13.290;2023-02-22T06:06:13;8.20;96.70
73955;DHT22;62306;52.516;13.290;2023-02-22T06:08:41;8.20;96.80
73955;DHT22;62306;52.516;13.290;2023-02-22T06:11:09;8.20;96.60
73955;DHT22;62306;52.516;13.290;2023-02-22T06:13:36;8.30;97.00
73955;DHT22;62306;52.516;13.290;2023-02-22T06:16:04;8.40;96.80
73955;DHT22;62306;52.516;13.290;2023-02-22T06:18:31;8.50;96.20
73955;DHT22;62306;52.516;13.290;2023-02-22T06:20:59;8.50;95.80
73955;DHT22;62306;52.516;13.290;2023-02-22T06:23:26;8.50;95.40
73955;DHT22;62306;52.516;13.290;2023-02-22T06:25:55;8.50;95.70
73955;DHT22;62306;52.516;13.290;2023-02-22T06:28:22;8.50;95.00
73955;DHT22;62306;52.516;13.290;2023-02-22T06:30:49;8.50;95.40
73955;DHT22;62306;52.516;13.290;2023-02-22T06:33:16;8.40;95.50
73955;DHT22;62306;52.516;13.290;2023-02-22T06:35:43;8.50;95.30
73955;DHT22;62306;52.516;13.290;2023-02-22T06:38:11;8.60;95.30
73955;DHT22;62306;52.516;13.290;2023-02-22T06:40:46;8.60;95.20
73955;DHT22;62306;52.516;13.290;2023-02-22T06:43:14;8.60;95.20
73955;DHT22;62306;52.516;13.290;2023-02-22T06:45:41;8.60;95.10
73955;DHT22;62306;52.516;13.290;2023-02-22T06:48:08;8.70;95.00
73955;DHT22;62306;52.516;13.290;2023-02-22T06:50:35;8.70;94.80
73955;DHT22;62306;52.516;13.290;2023-02-22T06:53:02;8.60;94.90
73955;DHT22;62306;52.516;13.290;2023-02-22T06:55:31;8.60;94.80
73955;DHT22;62306;52.516;13.290;2023-02-22T06:57:59;8.70;94.90
73955;DHT22;62306;52.516;13.290;2023-02-22T07:00:29;8.70;94.80
73955;DHT22;62306;52.516;13.290;2023-02-22T07:02:57;8.70;94.70
73955;DHT22;62306;52.516;13.290;2023-02-22T07:05:25;8.70;94.90
73955;DHT22;62306;52.516;13.290;2023-02-22T07:07:59;8.80;94.80
73955;DHT22;62306;52.516;13.290;2023-02-22T07:10:28;8.90;94.80
73955;DHT22;62306;52.516;13.290;2023-02-22T07:12:55;8.90;93.90
73955;DHT22;62306;52.516;13.290;2023-02-22T07:15:24;8.90;94.00
73955;DHT22;62306;52.516;13.290;2023-02-22T07:17:54;8.90;94.10
73955;DHT22;62306;52.516;13.290;2023-02-22T07:20:22;8.80;94.20
73955;DHT22;62306;52.516;13.290;2023-02-22T07:22:49;8.90;94.00
73955;DHT22;62306;52.516;13.290;2023-02-22T07:25:16;9.00;93.70
73955;DHT22;62306;52.516;13.290;2023-02-22T07:27:44;9.00;93.40
73955;DHT22;62306;52.516;13.290;2023-02-22T07:30:16;9.10;93.20
73955;DHT22;62306;52.516;13.290;2023-02-22T07:32:43;9.10;93.20
73955;DHT22;62306;52.516;13.290;2023-02-22T07:35:16;9.10;92.60
73955;DHT22;62306;52.516;13.290;2023-02-22T07:37:43;9.30;92.40
73955;DHT22;62306;52.516;13.290;2023-02-22T07:40:10;9.10;92.70
73955;DHT22;62306;52.516;13.290;2023-02-22T07:42:51;9.10;92.40
73955;DHT22;62306;52.516;13.290;2023-02-22T07:45:19;9.20;92.30
73955;DHT22;62306;52.516;13.290;2023-02-22T07:47:46;9.30;92.10
73955;DHT22;62306;52.516;13.290;2023-02-22T07:50:15;9.30;92.00
73955;DHT22;62306;52.516;13.290;2023-02-22T07:52:44;9.20;92.30
73955;DHT22;62306;52.516;13.290;2023-02-22T07:55:13;9.20;92.00
73955;DHT22;62306;52.516;13.290;2023-02-22T07:57:41;9.20;92.40
73955;DHT22;62306;52.516;13.290;2023-02-22T08:00:09;9.10;92.50
73955;DHT22;62306;52.516;13.290;2023-02-22T08:02:39;9.10;92.30
73955;DHT22;62306;52.516;13.290;2023-02-22T08:05:06;9.00;92.80
73955;DHT22;62306;52.516;13.290;2023-02-22T08:07:36;9.00;92.80
73955;DHT22;62306;52.516;13.290;2023-02-22T08:10:03;9.00;92.60
73955;DHT22;62306;52.516;13.290;2023-02-22T08:12:32;9.10;92.50
73955;DHT22;62306;52.516;13.290;2023-02-22T08:14:59;9.20;92.40
73955;DHT22;62306;52.516;13.290;2023-02-22T08:17:26;9.20;92.00
73955;DHT22;62306;52.516;13.290;2023-02-22T08:19:53;9.10;92.50
73955;DHT22;62306;52.516;13.290;2023-02-22T08:22:20;9.10;92.30
73955;DHT22;62306;52.516;13.290;2023-02-22T08:24:49;9.20;92.10
73955;DHT22;62306;52.516;13.290;2023-02-22T08:27:22;9.20;92.00
73955;DHT22;62306;52.516;13.290;2023-02-22T08:29:49;9.30;92.20
73955;DHT22;62306;52.516;13.290;2023-02-22T08:32:16;9.40;91.60
73955;DHT22;62306;52.516;13.290;2023-02-22T08:34:43;9.30;91.90
73955;DHT22;62306;52.516;13.290;2023-02-22T08:37:10;9.30;92.10
73955;DHT22;62306;52.516;13.290;2023-02-22T08:39:38;9.40;91.90
73955;DHT22;62306;52.516;13.290;2023-02-22T08:42:07;9.50;91.60
73955;DHT22;62306;52.516;13.290;2023-02-22T08:44:34;9.50;90.90
73955;DHT22;62306;52.516;13.290;2023-02-22T08:47:02;9.40;91.20
73955;DHT22;62306;52.516;13.290;2023-02-22T08:49:29;9.40;91.20
73955;DHT22;62306;52.516;13.290;2023-02-22T08:51:56;9.50;91.40
73955;DHT22;62306;52.516;13.290;2023-02-22T08:54:23;9.60;91.00
73955;DHT22;62306;52.516;13.290;2023-02-22T08:56:50;9.60;90.70
73955;DHT22;62306;52.516;13.290;2023-02-22T08:59:18;9.70;90.60
73955;DHT22;62306;52.516;13.290;2023-02-22T09:01:45;9.70;90.60
73955;DHT22;62306;52.516;13.290;2023-02-22T09:04:12;9.80;90.60
73955;DHT22;62306;52.516;13.290;2023-02-22T09:06:39;9.80;90.60
73955;DHT22;62306;52.516;13.290;2023-02-22T09:09:07;9.80;90.30
73955;DHT22;62306;52.516;13.290;2023-02-22T09:11:33;9.90;90.10
73955;DHT22;62306;52.516;13.290;2023-02-22T09:14:00;9.90;90.00
73955;DHT22;62306;52.516;13.290;2023-02-22T09:16:30;9.80;90.10
73955;DHT22;62306;52.516;13.290;2023-02-22T09:18:56;9.70;90.20
73955;DHT22;62306;52.516;13.290;2023-02-22T09:21:23;9.80;90.50
73955;DHT22;62306;52.516;13.290;2023-02-22T09:23:50;10.00;89.50
73955;DHT22;62306;52.516;13.290;2023-02-22T09:26:19;10.20;88.80
73955;DHT22;62306;52.516;13.290;2023-02-22T09:28:48;10.30;87.50
73955;DHT22;62306;52.516;13.290;2023-02-22T09:31:15;10.50;87.30
73955;DHT22;62306;52.516;13.290;2023-02-22T09:33:43;10.50;86.20
73955;DHT22;62306;52.516;13.290;2023-02-22T09:36:10;10.40;85.50
73955;DHT22;62306;52.516;13.290;2023-02-22T09:38:37;10.50;85.00
73955;DHT22;62306;52.516;13.290;2023-02-22T09:41:10;10.40;84.90
73955;DHT22;62306;52.516;13.290;2023-02-22T09:43:44;10.50;85.00
73955;DHT22;62306;52.516;13.290;2023-02-22T09:46:26;10.30;84.10
73955;DHT22;62306;52.516;13.290;2023-02-22T09:49:03;10.30;84.90
73955;DHT22;62306;52.516;13.290;2023-02-22T09:51:36;10.60;85.00
73955;DHT22;62306;52.516;13.290;2023-02-22T09:54:11;10.70;82.70
73955;DHT22;62306;52.516;13.290;2023-02-22T09:56:40;10.50;82.60
73955;DHT22;62306;52.516;13.290;2023-02-22T09:59:11;10.60;83.10
73955;DHT22;62306;52.516;13.290;2023-02-22T10:01:41;10.70;83.40
73955;DHT22;62306;52.516;13.290;2023-02-22T10:04:18;10.70;81.20
73955;DHT22;62306;52.516;13.290;2023-02-22T10:07:05;10.60;81.60
73955;DHT22;62306;52.516;13.290;2023-02-22T10:09:41;10.70;81.40
73955;DHT22;62306;52.516;13.290;2023-02-22T10:12:12;10.60;81.30
73955;DHT22;62306;52.516;13.290;2023-02-22T10:15:04;10.70;81.00
73955;DHT22;62306;52.516;13.290;2023-02-22T10:17:35;10.80;80.70
73955;DHT22;62306;52.516;13.290;2023-02-22T10:20:16;10.80;80.00
73955;DHT22;62306;52.516;13.290;2023-02-22T10:23:03;10.90;79.00
73955;DHT22;62306;52.516;13.290;2023-02-22T10:25:36;10.90;80.50
73955;DHT22;62306;52.516;13.290;2023-02-22T10:28:10;11.20;80.60
73955;DHT22;62306;52.516;13.290;2023-02-22T10:30:41;11.40;77.50
73955;DHT22;62306;52.516;13.290;2023-02-22T10:33:14;11.40;76.10
73955;DHT22;62306;52.516;13.290;2023-02-22T10:35:43;11.50;75.40
73955;DHT22;62306;52.516;13.290;2023-02-22T10:38:15;11.30;76.30
73955;DHT22;62306;52.516;13.290;2023-02-22T10:40:45;11.30;76.80
73955;DHT22;62306;52.516;13.290;2023-02-22T10:43:13;11.10;77.90
73955;DHT22;62306;52.516;13.290;2023-02-22T10:45:40;11.10;77.50
73955;DHT22;62306;52.516;13.290;2023-02-22T10:48:10;11.00;78.30
73955;DHT22;62306;52.516;13.290;2023-02-22T10:50:40;11.20;77.60
73955;DHT22;62306;52.516;13.290;2023-02-22T10:53:09;11.00;77.80
73955;DHT22;62306;52.516;13.290;2023-02-22T10:56:06;10.90;79.50
73955;DHT22;62306;52.516;13.290;2023-02-22T10:58:42;11.00;78.90
73955;DHT22;62306;52.516;13.290;2023-02-22T11:01:26;11.10;78.50
73955;DHT22;62306;52.516;13.290;2023-02-22T11:04:00;10.70;80.20
73955;DHT22;62306;52.516;13.290;2023-02-22T11:06:27;10.80;81.00
73955;DHT22;62306;52.516;13.290;2023-02-22T11:09:06;10.90;81.00
73955;DHT22;62306;52.516;13.290;2023-02-22T11:11:36;11.00;80.90
73955;DHT22;62306;52.516;13.290;2023-02-22T11:14:04;11.00;80.80
73955;DHT22;62306;52.516;13.290;2023-02-22T11:16:34;11.20;80.00
73955;DHT22;62306;52.516;13.290;2023-02-22T11:19:11;11.30;78.50
73955;DHT22;62306;52.516;13.290;2023-02-22T11:21:38;11.10;79.70
73955;DHT22;62306;52.516;13.290;2023-02-22T11:24:09;11.10;81.00
73955;DHT22;62306;52.516;13.290;2023-02-22T11:26:40;10.90;81.40
73955;DHT22;62306;52.516;13.290;2023-02-22T11:29:11;10.90;80.90
73955;DHT22;62306;52.516;13.290;2023-02-22T11:31:42;11.00;81.00
73955;DHT22;62306;52.516;13.290;2023-02-22T11:34:28;11.20;80.60
73955;DHT22;62306;52.516;13.290;2023-02-22T11:37:15;11.30;78.30
73955;DHT22;62306;52.516;13.290;2023-02-22T11:39:44;11.30;78.80
73955;DHT22;62306;52.516;13.290;2023-02-22T11:42:20;11.30;77.80
73955;DHT22;62306;52.516;13.290;2023-02-22T11:44:48;11.10;78.70
73955;DHT22;62306;52.516;13.290;2023-02-22T11:47:16;11.10;78.20
73955;DHT22;62306;52.516;13.290;2023-02-22T11:49:44;11.20;77.50
73955;DHT22;62306;52.516;13.290;2023-02-22T11:52:18;10.80;79.30
73955;DHT22;62306;52.516;13.290;2023-02-22T11:54:59;10.70;79.30
73955;DHT22;62306;52.516;13.290;2023-02-22T11:57:43;10.70;80.20
73955;DHT22;62306;52.516;13.290;2023-02-22T12:00:18;10.70;79.40
73955;DHT22;62306;52.516;13.290;2023-02-22T12:03:15;10.70;79.40
73955;DHT22;62306;52.516;13.290;2023-02-22T12:05:57;10.60;79.70
73955;DHT22;62306;52.516;13.290;2023-02-22T12:08:35;10.60;79.40
73955;DHT22;62306;52.516;13.290;2023-02-22T12:11:12;10.50;79.40
73955;DHT22;62306;52.516;13.290;2023-02-22T12:13:53;10.60;80.30
73955;DHT22;62306;52.516;13.290;2023-02-22T12:16:31;10.90;79.60
73955;DHT22;62306;52.516;13.290;2023-02-22T12:19:17;11.00;77.90
73955;DHT22;62306;52.516;13.290;2023-02-22T12:21:51;11.10;78.00
73955;DHT22;62306;52.516;13.290;2023-02-22T12:24:21;11.20;77.60
73955;DHT22;62306;52.516;13.290;2023-02-22T12:26:54;11.10;77.40
73955;DHT22;62306;52.516;13.290;2023-02-22T12:29:27;11.00;77.10
73955;DHT22;62306;52.516;13.290;2023-02-22T12:31:59;11.00;77.70
73955;DHT22;62306;52.516;13.290;2023-02-22T12:34:32;10.90;78.00
73955;DHT22;62306;52.516;13.290;2023-02-22T12:37:05;10.80;78.10
73955;DHT22;62306;52.516;13.290;2023-02-22T12:39:42;10.70;79.00
73955;DHT22;62306;52.516;13.290;2023-02-22T12:42:15;10.80;78.90
73955;DHT22;62306;52.516;13.290;2023-02-22T12:44:45;10.90;78.70
73955;DHT22;62306;52.516;13.290;2023-02-22T12:47:17;11.10;77.30
73955;DHT22;62306;52.516;13.290;2023-02-22T12:49:51;11.30;77.40
73955;DHT22;62306;52.516;13.290;2023-02-22T12:52:33;11.20;77.50
73955;DHT22;62306;52.516;13.290;2023-02-22T12:55:10;11.00;77.90
73955;DHT22;62306;52.516;13.290;2023-02-22T12:57:48;10.90;78.40
73955;DHT22;62306;52.516;13.290;2023-02-22T13:00:19;10.80;78.80
73955;DHT22;62306;52.516;13.290;2023-02-22T13:02:57;10.80;80.10
73955;DHT22;62306;52.516;13.290;2023-02-22T13:05:25;11.10;78.70
73955;DHT22;62306;52.516;13.290;2023-02-22T13:08:04;11.20;77.30
73955;DHT22;62306;52.516;13.290;2023-02-22T13:13:38;10.90;78.00
73955;DHT22;62306;52.516;13.290;2023-02-22T13:16:18;10.70;78.90
73955;DHT22;62306;52.516;13.290;2023-02-22T13:18:51;10.90;79.40
73955;DHT22;62306;52.516;13.290;2023-02-22T13:21:23;11.00;78.20
73955;DHT22;62306;52.516;13.290;2023-02-22T13:23:56;11.00;78.60
73955;DHT22;62306;52.516;13.290;2023-02-22T13:26:32;11.00;78.70
73955;DHT22;62306;52.516;13.290;2023-02-22T13:29:07;11.00;78.10
73955;DHT22;62306;52.516;13.290;2023-02-22T13:31:57;10.80;79.20
73955;DHT22;62306;52.516;13.290;2023-02-22T13:34:39;10.80;78.70
73955;DHT22;62306;52.516;13.290;2023-02-22T13:37:19;10.90;78.80
73955;DHT22;62306;52.516;13.290;2023-02-22T13:40:03;10.90;79.10
73955;DHT22;62306;52.516;13.290;2023-02-22T13:42:49;11.10;78.30
73955;DHT22;62306;52.516;13.290;2023-02-22T13:45:34;11.10;79.00
73955;DHT22;62306;52.516;13.290;2023-02-22T13:48:40;11.20;78.00
73955;DHT22;62306;52.516;13.290;2023-02-22T13:54:02;11.00;78.00
73955;DHT22;62306;52.516;13.290;2023-02-22T13:56:30;11.00;78.40
73955;DHT22;62306;52.516;13.290;2023-02-22T13:58:59;10.90;77.90
73955;DHT22;62306;52.516;13.290;2023-02-22T14:01:42;10.80;78.70
73955;DHT22;62306;52.516;13.290;2023-02-22T14:04:34;10.80;79.30
73955;DHT22;62306;52.516;13.290;2023-02-22T14:09:47;10.80;79.30
73955;DHT22;62306;52.516;13.290;2023-02-22T14:12:46;10.90;78.80
73955;DHT22;62306;52.516;13.290;2023-02-22T14:15:16;10.90;78.60
73955;DHT22;62306;52.516;13.290;2023-02-22T14:17:48;11.10;77.80
73955;DHT22;62306;52.516;13.290;2023-02-22T14:20:27;11.10;77.40
73955;DHT22;62306;52.516;13.290;2023-02-22T14:23:26;11.10;78.00
73955;DHT22;62306;52.516;13.290;2023-02-22T14:25:55;11.10;77.50
73955;DHT22;62306;52.516;13.290;2023-02-22T14:28:36;11.10;78.10
73955;DHT22;62306;52.516;13.290;2023-02-22T14:31:06;11.00;77.60
73955;DHT22;62306;52.516;13.290;2023-02-22T14:34:10;11.10;77.00
73955;DHT22;62306;52.516;13.290;2023-02-22T14:36:47;11.10;77.30
73955;DHT22;62306;52.516;13.290;2023-02-22T14:39:21;11.10;77.50
73955;DHT22;62306;52.516;13.290;2023-02-22T14:41:53;11.20;77.80
73955;DHT22;62306;52.516;13.290;2023-02-22T14:44:24;11.10;77.60
73955;DHT22;62306;52.516;13.290;2023-02-22T14:46:53;10.90;78.30
73955;DHT22;62306;52.516;13.290;2023-02-22T14:49:27;10.70;78.70
73955;DHT22;62306;52.516;13.290;2023-02-22T14:51:59;10.80;79.10
73955;DHT22;62306;52.516;13.290;2023-02-22T14:54:32;10.70;78.90
73955;DHT22;62306;52.516;13.290;2023-02-22T14:57:07;10.80;78.70
73955;DHT22;62306;52.516;13.290;2023-02-22T14:59:56;10.80;79.10
73955;DHT22;62306;52.516;13.290;2023-02-22T15:02:25;10.60;80.40
73955;DHT22;62306;52.516;13.290;2023-02-22T15:04:54;10.50;80.70
73955;DHT22;62306;52.516;13.290;2023-02-22T15:07:24;10.60;80.60
73955;DHT22;62306;52.516;13.290;2023-02-22T15:10:13;10.60;80.50
73955;DHT22;62306;52.516;13.290;2023-02-22T15:12:50;10.50;80.50
73955;DHT22;62306;52.516;13.290;2023-02-22T15:15:19;10.40;81.20
73955;DHT22;62306;52.516;13.290;2023-02-22T15:17:48;10.40;81.20
73955;DHT22;62306;52.516;13.290;2023-02-22T15:20:20;10.60;80.10
73955;DHT22;62306;52.516;13.290;2023-02-22T15:22:47;10.70;80.00
73955;DHT22;62306;52.516;13.290;2023-02-22T15:25:15;10.60;80.30
73955;DHT22;62306;52.516;13.290;2023-02-22T15:27:49;10.60;79.80
73955;DHT22;62306;52.516;13.290;2023-02-22T15:30:21;10.70;79.80
73955;DHT22;62306;52.516;13.290;2023-02-22T15:32:51;10.50;80.60
73955;DHT22;62306;52.516;13.290;2023-02-22T15:35:26;10.50;80.20
73955;DHT22;62306;52.516;13.290;2023-02-22T15:38:00;10.40;81.10
73955;DHT22;62306;52.516;13.290;2023-02-22T15:40:28;10.10;82.90
73955;DHT22;62306;52.516;13.290;2023-02-22T15:42:59;10.20;83.00
73955;DHT22;62306;52.516;13.290;2023-02-22T15:45:27;10.30;82.40
73955;DHT22;62306;52.516;13.290;2023-02-22T15:47:55;10.40;82.30
73955;DHT22;62306;52.516;13.290;2023-02-22T15:50:26;10.40;81.70
73955;DHT22;62306;52.516;13.290;2023-02-22T15:52:55;10.50;81.80
73955;DHT22;62306;52.516;13.290;2023-02-22T15:55:28;10.40;82.50
73955;DHT22;62306;52.516;13.290;2023-02-22T15:57:58;10.20;82.90
73955;DHT22;62306;52.516;13.290;2023-02-22T16:00:27;10.20;82.80
73955;DHT22;62306;52.516;13.290;2023-02-22T16:03:01;10.30;82.60
73955;DHT22;62306;52.516;13.290;2023-02-22T16:05:37;10.20;83.10